TimeEDT,TemperatureF,Dew PointF,Humidity,Sea Level PressureIn,VisibilityMPH,Wind Direction,Wind SpeedMPH,Gust SpeedMPH,PrecipitationIn,Events,Conditions,WindDirDegrees,DateUTC
12:53 AM,64.0,60.1,87,30.26,10.0,Calm,Calm,-,N/A,,Clear,0,2013-08-18 04:53:00
1:53 AM,64.0,61.0,90,30.25,10.0,Calm,Calm,-,N/A,,Clear,0,2013-08-18 05:53:00
2:53 AM,63.0,60.1,90,30.25,10.0,Calm,Calm,-,N/A,,Clear,0,2013-08-18 06:53:00
3:53 AM,63.0,61.0,93,30.26,8.0,Calm,Calm,-,N/A,,Clear,0,2013-08-18 07:53:00
4:53 AM,63.0,59.0,87,30.25,10.0,NNE,5.8,-,N/A,,Clear,20,2013-08-18 08:53:00
5:53 AM,62.1,60.1,93,30.26,8.0,Calm,Calm,-,N/A,,Clear,0,2013-08-18 09:53:00
6:53 AM,63.0,60.1,90,30.27,8.0,Calm,Calm,-,N/A,,Clear,0,2013-08-18 10:53:00
7:53 AM,64.0,60.1,87,30.28,9.0,North,3.5,-,N/A,,Clear,360,2013-08-18 11:53:00
8:53 AM,66.0,61.0,84,30.27,10.0,NNE,4.6,-,N/A,,Clear,30,2013-08-18 12:53:00
9:53 AM,68.0,61.0,78,30.28,9.0,Calm,Calm,-,N/A,,Clear,0,2013-08-18 13:53:00
10:53 AM,72.0,61.0,68,30.26,10.0,Calm,Calm,-,N/A,,Clear,0,2013-08-18 14:53:00
11:53 AM,73.9,61.0,64,30.25,10.0,Calm,Calm,-,N/A,,Clear,0,2013-08-18 15:53:00
12:53 PM,77.0,59.0,54,30.23,10.0,Calm,Calm,-,N/A,,Clear,0,2013-08-18 16:53:00
1:53 PM,78.1,57.9,50,30.22,10.0,Calm,Calm,-,N/A,,Clear,0,2013-08-18 17:53:00
2:53 PM,77.0,57.9,52,30.19,10.0,Calm,Calm,-,N/A,,Clear,0,2013-08-18 18:53:00
3:53 PM,77.0,59.0,54,30.16,10.0,SSE,5.8,-,N/A,,Clear,150,2013-08-18 19:53:00
4:53 PM,75.0,61.0,62,30.15,10.0,SSE,5.8,-,N/A,,Mostly Cloudy,160,2013-08-18 20:53:00
5:53 PM,73.0,63.0,71,30.14,10.0,SSE,6.9,-,0.00,Rain,Light Rain,160,2013-08-18 21:53:00
6:53 PM,72.0,62.1,71,30.14,10.0,Calm,Calm,-,0.00,,Clear,0,2013-08-18 22:53:00
7:53 PM,70.0,63.0,78,30.14,10.0,South,3.5,-,N/A,,Clear,170,2013-08-18 23:53:00
8:53 PM,69.1,62.1,78,30.14,10.0,SSE,3.5,-,N/A,,Clear,160,2013-08-19 00:53:00
9:53 PM,68.0,61.0,78,30.13,10.0,South,4.6,-,N/A,,Mostly Cloudy,180,2013-08-19 01:53:00
10:53 PM,66.0,62.1,87,30.13,10.0,South,3.5,-,N/A,,Clear,180,2013-08-19 02:53:00
11:53 PM,64.9,60.1,84,30.12,10.0,South,4.6,-,N/A,,Clear,180,2013-08-19 03:53:00